Time;durP1;ratioP1;P1;durP2;ratioP2;P2;SDS_P1;SDS_P2;PMS_P1;PMS_P2;Temp;Humidity;BMP_temperature;BMP_pressure;BME280_temperature;BME280_humidity;BME280_pressure;Samples;Min_cycle;Max_cycle;Signal;HPM_P1;HPM_P2
2023/05/24 00:01:02;;;;;;;;;7.67;5.33;;;;;;;;5063894;28;45453;-77
2023/05/24 00:03:29;;;;;;;;;3.67;3.67;;;;;;;;5061454;28;47070;-77
2023/05/24 00:05:55;;;;;;;;;8.00;6.33;;;;;;;;5063345;28;45460;-77
2023/05/24 00:08:20;;;;;;;;;4.67;4.00;;;;;;;;5063422;28;45410;-77
2023/05/24 00:10:47;;;;;;;;;5.33;4.67;;;;;;;;5063309;28;45513;-77
2023/05/24 00:13:14;;;;;;;;;7.00;6.00;;;;;;;;5063698;28;45950;-77
2023/05/24 00:15:39;;;;;;;;;6.67;6.33;;;;;;;;5063397;28;45223;-77
2023/05/24 00:18:04;;;;;;;;;5.67;4.00;;;;;;;;5062817;28;45160;-77
2023/05/24 00:20:29;;;;;;;;;6.33;5.33;;;;;;;;5063210;28;45348;-78
2023/05/24 00:22:55;;;;;;;;;6.67;5.00;;;;;;;;5078635;28;47995;-76
2023/05/24 00:25:20;;;;;;;;;4.67;3.67;;;;;;;;5063339;28;45217;-77
2023/05/24 00:27:45;;;;;;;;;4.33;4.33;;;;;;;;5063307;28;45568;-77
2023/05/24 00:30:10;;;;;;;;;5.33;4.33;;;;;;;;5063383;28;45373;-77
2023/05/24 00:32:36;;;;;;;;;5.33;5.33;;;;;;;;5063412;28;45196;-77
2023/05/24 00:35:01;;;;;;;;;5.67;4.67;;;;;;;;5062203;28;45969;-77
2023/05/24 00:37:26;;;;;;;;;5.33;5.00;;;;;;;;5062722;28;45230;-77
2023/05/24 00:39:54;;;;;;;;;5.67;5.67;;;;;;;;5062818;28;45223;-77
2023/05/24 00:42:19;;;;;;;;;7.33;4.33;;;;;;;;5062731;28;46133;-76
2023/05/24 00:44:44;;;;;;;;;4.67;4.67;;;;;;;;5062833;28;45276;-77
2023/05/24 00:47:09;;;;;;;;;4.00;4.00;;;;;;;;5062466;28;45271;-77
2023/05/24 00:49:35;;;;;;;;;7.00;6.00;;;;;;;;5062859;28;45494;-77
2023/05/24 00:52:00;;;;;;;;;5.00;4.33;;;;;;;;5062729;28;46296;-77
2023/05/24 00:54:26;;;;;;;;;5.00;5.00;;;;;;;;5061986;28;45298;-77
2023/05/24 00:56:51;;;;;;;;;5.33;5.33;;;;;;;;5061846;28;45341;-77
2023/05/24 00:59:16;;;;;;;;;7.33;7.33;;;;;;;;5060770;28;46384;-77
2023/05/24 01:01:45;;;;;;;;;6.00;5.67;;;;;;;;5062234;28;45328;-77
2023/05/24 01:04:11;;;;;;;;;5.33;5.33;;;;;;;;5060983;28;45764;-77
2023/05/24 01:06:44;;;;;;;;;7.00;6.00;;;;;;;;5062942;28;45261;-77
2023/05/24 01:09:10;;;;;;;;;4.67;4.33;;;;;;;;5062043;28;45349;-77
2023/05/24 01:11:48;;;;;;;;;5.33;5.33;;;;;;;;5060531;28;48219;-77
2023/05/24 01:14:37;;;;;;;;;6.67;5.33;;;;;;;;5062530;28;45330;-77
2023/05/24 01:17:04;;;;;;;;;7.00;7.00;;;;;;;;5061593;28;45386;-77
2023/05/24 01:19:43;;;;;;;;;6.67;6.00;;;;;;;;5060987;28;45498;-77
2023/05/24 01:22:11;;;;;;;;;6.67;6.67;;;;;;;;5061241;28;48064;-77
2023/05/24 01:24:45;;;;;;;;;6.00;4.67;;;;;;;;5062894;28;45250;-77
2023/05/24 01:27:11;;;;;;;;;6.00;5.00;;;;;;;;5062773;28;45337;-77
2023/05/24 01:29:37;;;;;;;;;7.67;7.00;;;;;;;;5060784;28;45284;-77
2023/05/24 01:32:03;;;;;;;;;6.33;6.00;;;;;;;;5060440;28;48077;-77
2023/05/24 01:34:28;;;;;;;;;10.67;5.67;;;;;;;;5060963;28;46002;-77
2023/05/24 01:36:53;;;;;;;;;6.00;5.33;;;;;;;;5060847;28;45260;-76
2023/05/24 01:39:19;;;;;;;;;6.33;6.00;;;;;;;;5060510;28;46332;-77
2023/05/24 01:42:03;;;;;;;;;7.33;6.00;;;;;;;;5061545;28;45359;-77
2023/05/24 01:44:32;;;;;;;;;7.00;7.00;;;;;;;;5062119;28;45267;-77
2023/05/24 01:47:03;;;;;;;;;6.67;6.67;;;;;;;;5060270;28;45493;-77
2023/05/24 01:49:33;;;;;;;;;6.00;6.00;;;;;;;;5061461;28;45537;-77
2023/05/24 01:52:02;;;;;;;;;7.33;6.00;;;;;;;;5061475;28;45679;-77
2023/05/24 01:54:30;;;;;;;;;9.00;6.00;;;;;;;;5060440;28;45732;-77
2023/05/24 01:56:56;;;;;;;;;5.67;5.67;;;;;;;;5061879;28;45457;-77
2023/05/24 01:59:22;;;;;;;;;7.67;7.00;;;;;;;;5061477;28;45476;-77
2023/05/24 02:01:47;;;;;;;;;7.67;7.33;;;;;;;;5061742;28;45991;-77
2023/05/24 02:04:12;;;;;;;;;10.00;9.00;;;;;;;;5061377;28;45314;-77
2023/05/24 02:06:38;;;;;;;;;6.33;6.33;;;;;;;;5061957;28;45361;-77
2023/05/24 02:09:03;;;;;;;;;7.33;6.00;;;;;;;;5061445;28;45516;-77
2023/05/24 02:11:28;;;;;;;;;6.00;6.00;;;;;;;;5060263;28;47258;-77
2023/05/24 02:13:53;;;;;;;;;8.33;6.00;;;;;;;;5060023;28;45327;-76
2023/05/24 02:16:18;;;;;;;;;8.67;5.33;;;;;;;;5060528;28;45619;-77
2023/05/24 02:18:45;;;;;;;;;6.67;6.33;;;;;;;;5061230;28;45361;-77
2023/05/24 02:21:11;;;;;;;;;7.00;6.00;;;;;;;;5060474;28;45340;-77
2023/05/24 02:23:36;;;;;;;;;7.00;6.00;;;;;;;;5060920;28;45242;-77
2023/05/24 02:26:02;;;;;;;;;7.00;7.00;;;;;;;;5061218;28;45290;-77
2023/05/24 02:28:30;;;;;;;;;6.00;6.00;;;;;;;;5061073;28;45215;-76
2023/05/24 02:30:56;;;;;;;;;5.67;5.67;;;;;;;;5061155;28;45397;-77
2023/05/24 02:33:24;;;;;;;;;8.33;7.00;;;;;;;;5060649;28;45252;-77
2023/05/24 02:35:49;;;;;;;;;7.67;7.67;;;;;;;;5061215;28;45347;-78
2023/05/24 02:38:14;;;;;;;;;7.00;6.00;;;;;;;;5059048;28;45997;-77
2023/05/24 02:40:40;;;;;;;;;7.00;7.00;;;;;;;;5059432;28;47041;-77
2023/05/24 02:43:05;;;;;;;;;6.67;6.00;;;;;;;;5060341;28;45343;-76
2023/05/24 02:45:30;;;;;;;;;8.00;6.67;;;;;;;;5061070;28;45563;-77
2023/05/24 02:47:55;;;;;;;;;7.00;7.00;;;;;;;;5060566;28;45421;-76
2023/05/24 02:50:20;;;;;;;;;6.33;5.00;;;;;;;;5061183;28;46607;-77
2023/05/24 02:52:46;;;;;;;;;8.00;7.00;;;;;;;;5060770;28;45259;-76
2023/05/24 02:55:11;;;;;;;;;7.00;6.00;;;;;;;;5059347;28;45544;-77
2023/05/24 02:57:37;;;;;;;;;8.33;7.00;;;;;;;;5060612;28;45257;-76
2023/05/24 03:00:04;;;;;;;;;8.00;7.00;;;;;;;;5059101;28;46981;-77
2023/05/24 03:02:32;;;;;;;;;7.33;5.00;;;;;;;;5059279;28;45279;-76
2023/05/24 03:04:57;;;;;;;;;9.33;6.67;;;;;;;;5059534;28;45346;-76
2023/05/24 03:07:23;;;;;;;;;8.00;8.00;;;;;;;;5058878;28;46828;-76
2023/05/24 03:09:48;;;;;;;;;6.67;5.00;;;;;;;;5060544;28;45347;-76
2023/05/24 03:12:13;;;;;;;;;12.33;8.00;;;;;;;;5060659;28;45433;-77
2023/05/24 03:14:38;;;;;;;;;8.00;7.00;;;;;;;;5060972;28;45289;-77
2023/05/24 03:17:03;;;;;;;;;6.33;6.33;;;;;;;;5058579;28;45869;-77
2023/05/24 03:19:29;;;;;;;;;7.00;7.00;;;;;;;;5060669;28;46225;-77
2023/05/24 03:21:54;;;;;;;;;6.33;6.33;;;;;;;;5060499;28;45323;-77
2023/05/24 03:24:20;;;;;;;;;8.00;8.00;;;;;;;;5061462;28;45837;-77
2023/05/24 03:26:45;;;;;;;;;7.00;6.00;;;;;;;;5061066;28;45339;-76
2023/05/24 03:29:10;;;;;;;;;5.00;4.67;;;;;;;;5059965;28;45291;-77
2023/05/24 03:31:35;;;;;;;;;9.33;7.67;;;;;;;;5060136;28;45426;-76
2023/05/24 03:34:01;;;;;;;;;7.67;6.67;;;;;;;;5058904;28;45324;-77
2023/05/24 03:36:27;;;;;;;;;7.67;7.00;;;;;;;;5059489;28;45346;-77
2023/05/24 03:38:53;;;;;;;;;6.00;6.00;;;;;;;;5058386;28;48239;-77
2023/05/24 03:41:18;;;;;;;;;5.67;5.67;;;;;;;;5060005;28;45291;-77
2023/05/24 03:43:44;;;;;;;;;6.33;6.33;;;;;;;;5058324;28;45391;-77
2023/05/24 03:46:09;;;;;;;;;9.33;7.00;;;;;;;;5058641;28;46954;-77
2023/05/24 03:48:34;;;;;;;;;8.00;6.33;;;;;;;;5058364;28;46937;-77
2023/05/24 03:50:59;;;;;;;;;9.00;8.00;;;;;;;;5059986;28;45423;-77
2023/05/24 03:53:25;;;;;;;;;39.00;33.00;;;;;;;;5059810;28;45158;-77
2023/05/24 03:55:50;;;;;;;;;68.00;51.25;;;;;;;;5058343;28;46365;-77
2023/05/24 03:58:15;;;;;;;;;59.75;44.50;;;;;;;;5058751;28;46050;-77
2023/05/24 04:00:41;;;;;;;;;40.00;31.33;;;;;;;;5057933;28;45320;-77
2023/05/24 04:03:06;;;;;;;;;60.00;47.75;;;;;;;;5058019;28;45252;-77
2023/05/24 04:05:32;;;;;;;;;77.50;60.50;;;;;;;;5059159;28;45293;-77
2023/05/24 04:07:57;;;;;;;;;63.00;48.50;;;;;;;;5059028;28;45375;-77
2023/05/24 04:10:22;;;;;;;;;69.25;53.50;;;;;;;;5057636;28;45349;-76
2023/05/24 04:12:48;;;;;;;;;53.00;41.00;;;;;;;;5059348;28;45275;-76
2023/05/24 04:15:14;;;;;;;;;92.25;82.50;;;;;;;;5059090;28;45405;-77
2023/05/24 04:17:41;;;;;;;;;67.50;54.00;;;;;;;;5057580;28;47399;-77
2023/05/24 04:20:06;;;;;;;;;42.67;36.00;;;;;;;;5059348;28;45346;-77
2023/05/24 04:22:31;;;;;;;;;57.50;45.75;;;;;;;;5059398;28;45449;-77
2023/05/24 04:24:57;;;;;;;;;48.00;37.00;;;;;;;;5059204;28;45349;-77
2023/05/24 04:27:24;;;;;;;;;11.00;11.00;;;;;;;;5058996;28;45260;-77
2023/05/24 04:29:52;;;;;;;;;51.00;39.67;;;;;;;;5058905;28;45301;-77
2023/05/24 04:32:18;;;;;;;;;80.25;62.50;;;;;;;;5059231;28;45484;-76
2023/05/24 04:34:44;;;;;;;;;52.67;41.33;;;;;;;;5059660;28;45357;-76
2023/05/24 04:37:09;;;;;;;;;50.00;39.33;;;;;;;;5073764;28;47243;-77
2023/05/24 04:39:35;;;;;;;;;50.75;41.75;;;;;;;;5057620;28;45271;-76
2023/05/24 04:42:00;;;;;;;;;51.33;40.00;;;;;;;;5057774;28;45367;-76
2023/05/24 04:44:26;;;;;;;;;121.25;107.50;;;;;;;;5058587;28;45537;-77
2023/05/24 04:46:51;;;;;;;;;78.75;65.50;;;;;;;;5061962;28;45952;-77
2023/05/24 04:49:16;;;;;;;;;66.25;51.75;;;;;;;;5062053;28;45402;-76
2023/05/24 04:51:42;;;;;;;;;58.33;44.33;;;;;;;;5062899;28;45302;-77
2023/05/24 04:54:10;;;;;;;;;22.33;22.00;;;;;;;;5061420;28;46367;-76
2023/05/24 04:56:37;;;;;;;;;19.00;16.33;;;;;;;;5062891;28;45212;-77
2023/05/24 04:59:03;;;;;;;;;9.33;9.00;;;;;;;;5063743;28;45334;-79
2023/05/24 05:01:28;;;;;;;;;9.67;9.67;;;;;;;;5063339;28;45294;-77
2023/05/24 05:03:53;;;;;;;;;26.00;24.33;;;;;;;;5063640;28;45500;-77
2023/05/24 05:06:18;;;;;;;;;22.00;18.33;;;;;;;;5062512;28;45706;-77
2023/05/24 05:08:43;;;;;;;;;35.67;31.00;;;;;;;;5064281;28;45289;-77
2023/05/24 05:11:09;;;;;;;;;60.75;45.00;;;;;;;;5065357;28;45325;-77
2023/05/24 05:13:34;;;;;;;;;48.33;37.00;;;;;;;;5064137;28;45451;-77
2023/05/24 05:15:59;;;;;;;;;139.75;117.25;;;;;;;;5064742;28;46132;-77
2023/05/24 05:18:25;;;;;;;;;92.25;80.75;;;;;;;;5066467;28;45334;-78
2023/05/24 05:20:50;;;;;;;;;120.75;96.50;;;;;;;;5060925;28;45347;-77
2023/05/24 05:23:15;;;;;;;;;127.25;111.00;;;;;;;;5060385;28;45349;-77
2023/05/24 05:25:41;;;;;;;;;79.75;70.00;;;;;;;;5059832;28;47077;-76
2023/05/24 05:28:06;;;;;;;;;76.75;65.75;;;;;;;;5060811;28;45698;-80
2023/05/24 05:30:31;;;;;;;;;79.25;71.25;;;;;;;;5060174;28;45276;-79
2023/05/24 05:32:56;;;;;;;;;43.00;35.33;;;;;;;;5061329;28;45468;-78
2023/05/24 05:35:22;;;;;;;;;35.67;29.00;;;;;;;;5061503;28;45461;-79
2023/05/24 05:37:47;;;;;;;;;10.33;8.33;;;;;;;;5060048;28;45673;-79
2023/05/24 05:40:12;;;;;;;;;54.75;42.75;;;;;;;;5058314;28;45667;-78
2023/05/24 05:42:37;;;;;;;;;15.33;13.67;;;;;;;;5061080;28;45433;-79
2023/05/24 05:45:02;;;;;;;;;46.00;36.67;;;;;;;;5059662;28;47775;-79
2023/05/24 05:47:28;;;;;;;;;74.25;57.75;;;;;;;;5062517;28;45591;-80
2023/05/24 05:49:53;;;;;;;;;44.67;36.33;;;;;;;;5081166;27;45480;-78
2023/05/24 05:52:18;;;;;;;;;80.50;71.00;;;;;;;;5080159;28;46378;-78
2023/05/24 05:54:43;;;;;;;;;49.33;40.33;;;;;;;;5081373;28;45348;-77
2023/05/24 05:57:10;;;;;;;;;102.50;87.50;;;;;;;;5079834;28;45377;-78
2023/05/24 05:59:35;;;;;;;;;62.75;48.00;;;;;;;;5081564;27;45361;-76
2023/05/24 06:02:01;;;;;;;;;70.25;52.50;;;;;;;;5076360;27;45272;-76
2023/05/24 06:04:27;;;;;;;;;81.50;62.75;;;;;;;;5076481;28;47459;-77
2023/05/24 06:06:52;;;;;;;;;35.00;30.33;;;;;;;;5060487;28;45500;-79
2023/05/24 06:09:17;;;;;;;;;28.67;24.67;;;;;;;;5061121;28;45427;-76
2023/05/24 06:11:43;;;;;;;;;24.33;21.33;;;;;;;;5059318;28;46244;-76
2023/05/24 06:14:10;;;;;;;;;57.25;44.50;;;;;;;;5060520;28;45398;-76
2023/05/24 06:16:40;;;;;;;;;19.00;16.00;;;;;;;;5059205;28;45342;-76
2023/05/24 06:19:06;;;;;;;;;29.33;28.67;;;;;;;;5060749;28;45346;-76
2023/05/24 06:21:31;;;;;;;;;72.25;53.25;;;;;;;;5060274;28;45371;-77
2023/05/24 06:23:57;;;;;;;;;73.00;53.25;;;;;;;;5059963;28;46770;-76
2023/05/24 06:26:22;;;;;;;;;54.75;42.00;;;;;;;;5060327;28;45316;-76
2023/05/24 06:28:47;;;;;;;;;8.67;7.67;;;;;;;;5060590;28;45388;-76
2023/05/24 06:31:12;;;;;;;;;83.00;75.75;;;;;;;;5060675;28;45533;-77
2023/05/24 06:33:37;;;;;;;;;40.33;34.67;;;;;;;;5059793;28;46421;-76
2023/05/24 06:36:02;;;;;;;;;10.67;8.67;;;;;;;;5059080;28;45508;-76
2023/05/24 06:38:28;;;;;;;;;60.00;44.00;;;;;;;;5060507;28;45425;-77
2023/05/24 06:40:53;;;;;;;;;50.00;36.67;;;;;;;;5059861;28;45613;-77
2023/05/24 06:43:19;;;;;;;;;69.25;52.00;;;;;;;;5059175;28;46362;-77
2023/05/24 06:45:45;;;;;;;;;20.67;19.67;;;;;;;;5059936;28;45386;-77
2023/05/24 06:48:10;;;;;;;;;20.00;16.67;;;;;;;;5060293;28;45578;-76
2023/05/24 06:50:36;;;;;;;;;32.67;28.67;;;;;;;;5060039;28;45336;-76
2023/05/24 06:53:01;;;;;;;;;13.33;9.67;;;;;;;;5059802;28;45290;-77
2023/05/24 06:55:27;;;;;;;;;11.00;9.33;;;;;;;;5060457;28;45489;-78
2023/05/24 06:57:52;;;;;;;;;8.33;8.00;;;;;;;;5059349;28;45346;-79
2023/05/24 07:00:17;;;;;;;;;22.00;19.00;;;;;;;;5060976;28;45340;-77
2023/05/24 07:02:43;;;;;;;;;11.67;10.33;;;;;;;;5060561;28;45951;-80
2023/05/24 07:05:10;;;;;;;;;35.33;29.33;;;;;;;;5076322;28;45152;-80
2023/05/24 07:07:36;;;;;;;;;29.00;25.00;;;;;;;;5058583;28;45213;-78
2023/05/24 07:10:01;;;;;;;;;8.33;8.00;;;;;;;;5058182;28;45458;-78
2023/05/24 07:12:27;;;;;;;;;8.67;7.00;;;;;;;;5060017;28;45703;-75
2023/05/24 07:14:52;;;;;;;;;9.33;8.67;;;;;;;;5060078;28;45559;-75
2023/05/24 07:17:17;;;;;;;;;10.00;8.00;;;;;;;;5059909;28;45276;-78
2023/05/24 07:19:42;;;;;;;;;6.33;6.33;;;;;;;;5058479;28;47155;-78
2023/05/24 07:22:07;;;;;;;;;6.33;6.33;;;;;;;;5058807;28;45456;-78
2023/05/24 07:24:32;;;;;;;;;9.00;7.33;;;;;;;;5060153;28;45369;-79
2023/05/24 07:26:58;;;;;;;;;10.67;10.67;;;;;;;;5059805;28;45266;-78
2023/05/24 07:29:23;;;;;;;;;10.67;7.33;;;;;;;;5059707;28;45308;-78
2023/05/24 07:31:48;;;;;;;;;8.33;8.33;;;;;;;;5058143;28;48359;-79
2023/05/24 07:34:14;;;;;;;;;11.00;10.00;;;;;;;;5058392;28;45393;-78
2023/05/24 07:36:39;;;;;;;;;8.00;8.00;;;;;;;;5059657;28;45370;-79
2023/05/24 07:39:05;;;;;;;;;10.00;9.33;;;;;;;;5059588;28;45552;-77
2023/05/24 07:41:32;;;;;;;;;6.67;6.67;;;;;;;;5058598;28;47681;-78
2023/05/24 07:43:57;;;;;;;;;8.33;7.67;;;;;;;;5059945;28;45338;-78
2023/05/24 07:46:22;;;;;;;;;6.67;6.00;;;;;;;;5059886;28;45329;-78
2023/05/24 07:48:47;;;;;;;;;7.00;7.00;;;;;;;;5059626;28;45430;-78
2023/05/24 07:51:12;;;;;;;;;8.00;6.33;;;;;;;;5058180;28;47900;-77
2023/05/24 07:53:38;;;;;;;;;5.33;5.00;;;;;;;;5059460;28;45448;-78
2023/05/24 07:56:04;;;;;;;;;6.33;5.00;;;;;;;;5059939;28;45440;-78
2023/05/24 07:58:29;;;;;;;;;10.00;8.00;;;;;;;;5059880;28;45221;-78
2023/05/24 08:00:54;;;;;;;;;8.00;7.00;;;;;;;;5058261;28;48306;-78
2023/05/24 08:03:19;;;;;;;;;10.00;8.00;;;;;;;;5058217;28;45204;-78
2023/05/24 08:05:45;;;;;;;;;7.00;7.00;;;;;;;;5059568;28;45276;-79
2023/05/24 08:08:11;;;;;;;;;43.33;36.33;;;;;;;;5059314;28;45347;-78
2023/05/24 08:10:36;;;;;;;;;11.00;10.00;;;;;;;;5059041;28;45172;-78
2023/05/24 08:13:02;;;;;;;;;7.00;7.00;;;;;;;;5057823;28;45786;-77
2023/05/24 08:15:27;;;;;;;;;8.33;8.33;;;;;;;;5060356;28;46122;-78
2023/05/24 08:17:52;;;;;;;;;49.00;36.67;;;;;;;;5058129;28;45367;-76
2023/05/24 08:20:17;;;;;;;;;9.67;8.00;;;;;;;;5059325;28;46302;-78
2023/05/24 08:22:43;;;;;;;;;9.00;9.00;;;;;;;;5060716;28;45307;-78
2023/05/24 08:25:08;;;;;;;;;65.75;48.50;;;;;;;;5062329;28;45325;-77
2023/05/24 08:27:34;;;;;;;;;62.00;48.00;;;;;;;;5061072;28;45952;-77
2023/05/24 08:29:59;;;;;;;;;32.67;27.67;;;;;;;;5060479;28;45358;-78
2023/05/24 08:32:24;;;;;;;;;13.33;12.67;;;;;;;;5062068;28;45311;-79
2023/05/24 08:34:49;;;;;;;;;13.33;11.00;;;;;;;;5061603;28;45567;-77
2023/05/24 08:37:18;;;;;;;;;17.67;15.67;;;;;;;;5059721;28;45445;-78
2023/05/24 08:39:43;;;;;;;;;8.00;7.00;;;;;;;;5061218;28;47330;-79
2023/05/24 08:42:08;;;;;;;;;13.67;11.33;;;;;;;;5062973;28;45256;-76
2023/05/24 08:44:39;;;;;;;;;8.00;6.00;;;;;;;;5065431;28;45218;-76
2023/05/24 08:47:05;;;;;;;;;4.00;4.00;;;;;;;;5062338;28;46390;-76
2023/05/24 08:49:32;;;;;;;;;6.33;5.67;;;;;;;;5064197;28;45354;-76
2023/05/24 08:51:58;;;;;;;;;6.00;6.00;;;;;;;;5054253;28;45280;-75
2023/05/24 08:54:23;;;;;;;;;8.00;5.00;;;;;;;;5044970;28;45232;-76
2023/05/24 08:56:49;;;;;;;;;3.67;3.00;;;;;;;;5040952;28;45264;-78
2023/05/24 08:59:16;;;;;;;;;4.00;3.67;;;;;;;;5042135;28;45269;-77
2023/05/24 09:01:42;;;;;;;;;2.33;2.33;;;;;;;;5039759;28;45487;-77
2023/05/24 09:04:07;;;;;;;;;4.00;2.67;;;;;;;;5042419;28;45460;-78
2023/05/24 09:06:32;;;;;;;;;11.67;9.33;;;;;;;;5042039;28;45253;-78
2023/05/24 09:08:59;;;;;;;;;36.67;29.67;;;;;;;;5041133;28;45362;-78
2023/05/24 09:11:25;;;;;;;;;4.00;3.33;;;;;;;;5042206;28;45322;-77
2023/05/24 09:13:54;;;;;;;;;5.33;5.33;;;;;;;;5041128;28;45373;-78
2023/05/24 09:16:20;;;;;;;;;5.67;4.33;;;;;;;;5040804;28;45505;-79
2023/05/24 09:18:45;;;;;;;;;1.33;1.33;;;;;;;;5041830;28;45307;-78
2023/05/24 09:21:11;;;;;;;;;14.67;13.00;;;;;;;;5040988;28;46068;-78
2023/05/24 09:23:36;;;;;;;;;3.00;2.00;;;;;;;;5044813;28;45244;-78
2023/05/24 09:26:08;;;;;;;;;4.33;2.67;;;;;;;;5060617;28;46040;-77
2023/05/24 09:28:33;;;;;;;;;4.00;3.00;;;;;;;;5061256;28;46114;-77
2023/05/24 09:31:00;;;;;;;;;1.33;1.00;;;;;;;;5061422;28;45326;-77
2023/05/24 09:33:32;;;;;;;;;4.33;2.00;;;;;;;;5062066;28;45246;-76
2023/05/24 09:35:58;;;;;;;;;2.00;2.00;;;;;;;;5061625;28;45350;-77
2023/05/24 09:38:24;;;;;;;;;2.33;1.67;;;;;;;;5061737;28;45352;-77
2023/05/24 09:41:05;;;;;;;;;2.00;2.00;;;;;;;;5061108;28;45185;-77
2023/05/24 09:43:33;;;;;;;;;5.33;5.00;;;;;;;;5060636;28;45291;-78
2023/05/24 09:46:00;;;;;;;;;1.33;1.00;;;;;;;;5061939;28;45513;-77
2023/05/24 09:48:26;;;;;;;;;12.00;10.67;;;;;;;;5061312;28;45457;-78
2023/05/24 09:51:04;;;;;;;;;7.00;6.00;;;;;;;;5061506;28;45225;-79
2023/05/24 09:53:32;;;;;;;;;17.00;16.00;;;;;;;;5060257;28;45402;-79
2023/05/24 09:55:58;;;;;;;;;7.00;5.33;;;;;;;;5061515;28;45232;-78
2023/05/24 09:58:27;;;;;;;;;4.67;2.00;;;;;;;;5061455;28;46187;-79
2023/05/24 10:01:02;;;;;;;;;4.00;3.00;;;;;;;;5059975;28;45695;-78
2023/05/24 10:03:27;;;;;;;;;3.00;3.00;;;;;;;;5061646;28;45228;-79
2023/05/24 10:05:53;;;;;;;;;2.25;0.50;;;;;;;;5061674;28;45576;-78
2023/05/24 10:08:20;;;;;;;;;68.75;57.50;;;;;;;;5060942;28;45347;-79
2023/05/24 10:10:45;;;;;;;;;53.00;42.00;;;;;;;;5060941;28;45397;-78
2023/05/24 10:13:11;;;;;;;;;38.33;32.33;;;;;;;;5061321;28;45292;-78
2023/05/24 10:15:36;;;;;;;;;50.00;39.00;;;;;;;;5059375;28;46903;-78
2023/05/24 10:18:07;;;;;;;;;60.00;47.00;;;;;;;;5060618;28;45298;-79
2023/05/24 10:20:32;;;;;;;;;70.75;55.75;;;;;;;;5060712;28;45338;-78
2023/05/24 10:23:02;;;;;;;;;27.33;25.33;;;;;;;;5060916;28;45375;-78
2023/05/24 10:25:28;;;;;;;;;2.25;2.00;;;;;;;;5060860;28;45655;-77
2023/05/24 10:27:59;;;;;;;;;4.00;4.00;;;;;;;;5059052;28;47089;-78
2023/05/24 10:30:24;;;;;;;;;2.75;1.00;;;;;;;;5060303;28;45346;-78
2023/05/24 10:32:51;;;;;;;;;19.67;15.00;;;;;;;;5060725;28;45812;-79
2023/05/24 10:35:18;;;;;;;;;57.00;45.67;;;;;;;;5059535;28;45517;-78
2023/05/24 10:37:44;;;;;;;;;18.67;15.00;;;;;;;;5058636;28;46619;-79
2023/05/24 10:40:20;;;;;;;;;6.25;5.50;;;;;;;;5059126;28;45395;-79
2023/05/24 10:42:45;;;;;;;;;101.75;92.25;;;;;;;;5059486;28;45288;-79
2023/05/24 10:45:20;;;;;;;;;69.50;58.00;;;;;;;;5058749;28;45971;-77
2023/05/24 10:47:45;;;;;;;;;44.33;35.33;;;;;;;;5059936;28;45286;-78
2023/05/24 10:50:17;;;;;;;;;31.67;28.00;;;;;;;;5060258;28;45309;-79
2023/05/24 10:52:43;;;;;;;;;17.33;15.00;;;;;;;;5060452;28;45434;-77
2023/05/24 10:55:09;;;;;;;;;74.75;63.75;;;;;;;;5060214;28;45233;-78
2023/05/24 10:57:34;;;;;;;;;122.50;108.50;;;;;;;;5060308;28;46459;-78
2023/05/24 11:00:18;;;;;;;;;23.33;23.33;;;;;;;;5060351;28;45258;-78
2023/05/24 11:02:43;;;;;;;;;18.00;17.00;;;;;;;;5059023;28;45460;-77
2023/05/24 11:05:10;;;;;;;;;16.00;16.00;;;;;;;;5060073;28;45276;-78
2023/05/24 11:07:40;;;;;;;;;5.00;5.00;;;;;;;;5058964;28;47361;-77
2023/05/24 11:10:08;;;;;;;;;12.33;11.00;;;;;;;;5060315;28;45560;-77
2023/05/24 11:12:37;;;;;;;;;42.00;33.00;;;;;;;;5060258;28;45286;-78
2023/05/24 11:15:03;;;;;;;;;46.00;38.67;;;;;;;;5058462;28;47437;-79
2023/05/24 11:17:28;;;;;;;;;18.67;17.33;;;;;;;;5060742;28;46295;-77
2023/05/24 11:19:53;;;;;;;;;74.75;67.25;;;;;;;;5059471;28;45385;-77
2023/05/24 11:22:20;;;;;;;;;65.75;53.00;;;;;;;;5059529;28;45362;-76
2023/05/24 11:24:45;;;;;;;;;40.67;34.67;;;;;;;;5059319;28;46545;-77
2023/05/24 11:27:11;;;;;;;;;6.75;4.00;;;;;;;;5060896;28;46186;-76
2023/05/24 11:29:44;;;;;;;;;4.50;3.00;;;;;;;;5061723;28;45294;-76
2023/05/24 11:32:13;;;;;;;;;3.50;3.00;;;;;;;;5059550;28;45351;-75
2023/05/24 11:34:38;;;;;;;;;3.00;3.00;;;;;;;;5060931;28;45242;-75
2023/05/24 11:37:04;;;;;;;;;2.50;2.50;;;;;;;;5060220;28;45572;-76
2023/05/24 11:39:30;;;;;;;;;3.00;3.00;;;;;;;;5060322;28;45227;-77
2023/05/24 11:41:55;;;;;;;;;6.00;6.00;;;;;;;;5058767;28;45461;-78
2023/05/24 11:44:21;;;;;;;;;18.25;14.00;;;;;;;;5053668;28;45975;-78
2023/05/24 11:46:46;;;;;;;;;31.00;26.00;;;;;;;;5056063;28;45166;-77
2023/05/24 11:49:13;;;;;;;;;27.67;25.33;;;;;;;;5056914;28;45205;-77
2023/05/24 11:51:38;;;;;;;;;8.00;7.25;;;;;;;;5053158;28;45392;-77
2023/05/24 11:54:04;;;;;;;;;89.00;80.75;;;;;;;;5053604;28;45393;-77
2023/05/24 11:56:29;;;;;;;;;49.67;40.67;;;;;;;;5063525;28;45887;-78
2023/05/24 11:59:14;;;;;;;;;44.00;36.33;;;;;;;;5063684;28;45876;-77
2023/05/24 12:01:39;;;;;;;;;5.25;4.75;;;;;;;;5063262;28;45378;-77
2023/05/24 12:04:06;;;;;;;;;2.75;2.00;;;;;;;;5063374;28;45599;-78
2023/05/24 12:06:41;;;;;;;;;3.50;3.50;;;;;;;;5062928;28;45341;-77
2023/05/24 12:09:07;;;;;;;;;4.75;4.75;;;;;;;;5064324;28;45259;-78
2023/05/24 12:11:39;;;;;;;;;50.00;37.33;;;;;;;;5062278;28;45318;-79
2023/05/24 12:14:06;;;;;;;;;49.67;40.33;;;;;;;;5062793;28;45358;-77
2023/05/24 12:16:32;;;;;;;;;19.67;17.67;;;;;;;;5061235;28;46509;-77
2023/05/24 12:18:57;;;;;;;;;35.00;29.67;;;;;;;;5060436;28;45457;-77
2023/05/24 12:21:22;;;;;;;;;35.00;30.00;;;;;;;;5062774;28;45468;-77
2023/05/24 12:23:47;;;;;;;;;51.67;42.00;;;;;;;;5062520;28;45260;-77
2023/05/24 12:26:13;;;;;;;;;14.25;11.50;;;;;;;;5062467;28;46685;-77
2023/05/24 12:28:39;;;;;;;;;3.00;3.00;;;;;;;;5061600;28;45859;-77
2023/05/24 12:31:04;;;;;;;;;7.50;7.00;;;;;;;;5063041;28;45694;-77
2023/05/24 12:33:30;;;;;;;;;46.33;38.00;;;;;;;;5061076;28;45993;-77
2023/05/24 12:35:55;;;;;;;;;13.00;13.00;;;;;;;;5062560;28;45302;-78
2023/05/24 12:38:24;;;;;;;;;2.00;2.00;;;;;;;;5062580;28;45307;-77
2023/05/24 12:40:49;;;;;;;;;2.75;2.75;;;;;;;;5061363;28;45280;-77
2023/05/24 12:43:15;;;;;;;;;7.25;6.00;;;;;;;;5062519;28;45633;-79
2023/05/24 12:45:40;;;;;;;;;75.50;70.75;;;;;;;;5061532;28;47667;-78
2023/05/24 12:48:06;;;;;;;;;19.50;16.75;;;;;;;;5063202;28;45422;-78
2023/05/24 12:50:31;;;;;;;;;96.25;90.75;;;;;;;;5061260;28;45280;-77
2023/05/24 12:52:56;;;;;;;;;16.25;14.75;;;;;;;;5062275;28;45357;-78
2023/05/24 12:55:25;;;;;;;;;9.25;8.75;;;;;;;;5062294;28;46146;-77
2023/05/24 12:57:54;;;;;;;;;2.50;2.50;;;;;;;;5061027;28;45280;-77
2023/05/24 13:00:21;;;;;;;;;4.25;4.25;;;;;;;;5061960;28;45371;-76
2023/05/24 13:02:46;;;;;;;;;3.75;3.75;;;;;;;;5060511;28;45544;-77
2023/05/24 13:05:12;;;;;;;;;3.50;3.50;;;;;;;;5062028;28;45416;-79
2023/05/24 13:07:38;;;;;;;;;5.50;4.25;;;;;;;;5061968;28;45320;-76
2023/05/24 13:10:03;;;;;;;;;6.25;6.25;;;;;;;;5060762;28;45335;-78
2023/05/24 13:12:29;;;;;;;;;2.25;2.00;;;;;;;;5061868;28;45347;-77
2023/05/24 13:14:54;;;;;;;;;6.00;6.00;;;;;;;;5062055;28;45320;-77
2023/05/24 13:17:20;;;;;;;;;22.33;20.67;;;;;;;;5065257;28;45299;-76
2023/05/24 13:19:46;;;;;;;;;3.50;3.50;;;;;;;;5056349;28;45320;-77
2023/05/24 13:22:11;;;;;;;;;13.25;12.50;;;;;;;;5044734;28;45310;-77
2023/05/24 13:24:36;;;;;;;;;5.25;5.25;;;;;;;;5043029;28;47374;-76
2023/05/24 13:27:02;;;;;;;;;1.75;1.75;;;;;;;;5042779;28;45299;-77
2023/05/24 13:29:27;;;;;;;;;5.25;3.00;;;;;;;;5053576;28;45210;-77
2023/05/24 13:31:52;;;;;;;;;5.00;4.50;;;;;;;;5063321;28;45294;-77
2023/05/24 13:34:18;;;;;;;;;21.67;19.00;;;;;;;;5064642;28;46143;-76
2023/05/24 13:36:43;;;;;;;;;10.50;6.25;;;;;;;;5065667;28;45603;-76
2023/05/24 13:39:09;;;;;;;;;4.25;4.25;;;;;;;;5063886;28;45386;-77
2023/05/24 13:41:35;;;;;;;;;23.67;20.00;;;;;;;;5058747;28;45407;-77
2023/05/24 13:44:01;;;;;;;;;21.33;19.33;;;;;;;;5061872;28;45352;-77
2023/05/24 13:46:27;;;;;;;;;5.75;5.75;;;;;;;;5061551;28;45409;-77
2023/05/24 13:48:52;;;;;;;;;3.00;3.00;;;;;;;;5060411;28;45708;-78
2023/05/24 13:51:18;;;;;;;;;6.00;4.50;;;;;;;;5060391;28;46843;-77
2023/05/24 13:53:43;;;;;;;;;12.50;11.00;;;;;;;;5061936;28;45332;-76
2023/05/24 13:56:09;;;;;;;;;8.75;8.00;;;;;;;;5061749;28;45222;-77
2023/05/24 13:58:34;;;;;;;;;3.50;3.50;;;;;;;;5062112;28;45287;-76
2023/05/24 14:00:59;;;;;;;;;15.67;15.33;;;;;;;;5061772;28;45334;-77
2023/05/24 14:03:25;;;;;;;;;34.33;29.33;;;;;;;;5061339;28;45256;-76
2023/05/24 14:05:50;;;;;;;;;50.33;39.33;;;;;;;;5061680;28;45355;-76
2023/05/24 14:08:15;;;;;;;;;21.00;18.00;;;;;;;;5061673;28;45312;-77
2023/05/24 14:10:40;;;;;;;;;29.67;26.33;;;;;;;;5061807;28;45572;-77
2023/05/24 14:13:05;;;;;;;;;47.33;38.33;;;;;;;;5061838;28;45343;-77
2023/05/24 14:15:32;;;;;;;;;6.00;5.25;;;;;;;;5060518;28;45809;-78
2023/05/24 14:17:57;;;;;;;;;5.25;3.00;;;;;;;;5060243;28;45285;-78
2023/05/24 14:20:22;;;;;;;;;6.25;6.25;;;;;;;;5060062;28;45541;-76
2023/05/24 14:22:47;;;;;;;;;5.25;5.25;;;;;;;;5061437;28;45321;-76
2023/05/24 14:25:13;;;;;;;;;17.00;16.33;;;;;;;;5062584;28;45472;-77